sensor_id;sensor_type;location;lat;lon;timestamp;P1;durP1;ratioP1;P2;durP2;ratioP2
7267;SDS011;3675;43.276;27.962;2022-07-10T00:01:54;2.03;;;1.92;;
7267;SDS011;3675;43.276;27.962;2022-07-10T00:04:19;1.52;;;1.48;;
7267;SDS011;3675;43.276;27.962;2022-07-10T00:06:45;1.70;;;1.60;;
7267;SDS011;3675;43.276;27.962;2022-07-10T00:09:12;1.38;;;1.13;;
7267;SDS011;3675;43.276;27.962;2022-07-10T00:11:37;1.63;;;1.52;;
7267;SDS011;3675;43.276;27.962;2022-07-10T00:14:03;1.48;;;1.48;;
7267;SDS011;3675;43.276;27.962;2022-07-10T00:16:29;1.90;;;1.27;;
7267;SDS011;3675;43.276;27.962;2022-07-10T00:18:54;1.60;;;1.50;;
7267;SDS011;3675;43.276;27.962;2022-07-10T00:21:19;1.48;;;1.20;;
7267;SDS011;3675;43.276;27.962;2022-07-10T00:23:45;1.38;;;1.38;;
7267;SDS011;3675;43.276;27.962;2022-07-10T00:26:11;1.00;;;1.00;;
7267;SDS011;3675;43.276;27.962;2022-07-10T00:28:36;1.50;;;1.40;;
7267;SDS011;3675;43.276;27.962;2022-07-10T00:31:02;1.88;;;1.52;;
7267;SDS011;3675;43.276;27.962;2022-07-10T00:33:27;1.25;;;1.10;;
7267;SDS011;3675;43.276;27.962;2022-07-10T00:35:53;1.52;;;1.42;;
7267;SDS011;3675;43.276;27.962;2022-07-10T00:38:19;1.50;;;1.40;;
7267;SDS011;3675;43.276;27.962;2022-07-10T00:40:48;1.50;;;1.35;;
7267;SDS011;3675;43.276;27.962;2022-07-10T00:43:14;2.03;;;1.38;;
7267;SDS011;3675;43.276;27.962;2022-07-10T00:45:39;1.52;;;1.42;;
7267;SDS011;3675;43.276;27.962;2022-07-10T00:48:05;1.48;;;1.42;;
7267;SDS011;3675;43.276;27.962;2022-07-10T00:50:30;1.80;;;1.70;;
7267;SDS011;3675;43.276;27.962;2022-07-10T00:52:56;1.60;;;1.50;;
7267;SDS011;3675;43.276;27.962;2022-07-10T00:55:22;1.27;;;1.27;;
7267;SDS011;3675;43.276;27.962;2022-07-10T00:57:47;1.58;;;1.48;;
7267;SDS011;3675;43.276;27.962;2022-07-10T01:00:13;1.33;;;1.23;;
7267;SDS011;3675;43.276;27.962;2022-07-10T01:02:44;3.47;;;1.52;;
7267;SDS011;3675;43.276;27.962;2022-07-10T01:05:10;1.80;;;1.60;;
7267;SDS011;3675;43.276;27.962;2022-07-10T01:07:35;1.67;;;1.67;;
7267;SDS011;3675;43.276;27.962;2022-07-10T01:10:02;1.90;;;1.80;;
7267;SDS011;3675;43.276;27.962;2022-07-10T01:12:27;1.80;;;1.73;;
7267;SDS011;3675;43.276;27.962;2022-07-10T01:14:53;1.77;;;1.67;;
7267;SDS011;3675;43.276;27.962;2022-07-10T01:17:19;1.60;;;1.58;;
7267;SDS011;3675;43.276;27.962;2022-07-10T01:19:45;2.20;;;2.08;;
7267;SDS011;3675;43.276;27.962;2022-07-10T01:22:10;1.92;;;1.80;;
7267;SDS011;3675;43.276;27.962;2022-07-10T01:24:36;2.35;;;2.25;;
7267;SDS011;3675;43.276;27.962;2022-07-10T01:27:01;2.53;;;2.00;;
7267;SDS011;3675;43.276;27.962;2022-07-10T01:29:26;4.85;;;2.45;;
7267;SDS011;3675;43.276;27.962;2022-07-10T01:31:52;2.38;;;2.22;;
7267;SDS011;3675;43.276;27.962;2022-07-10T01:34:17;1.75;;;1.67;;
7267;SDS011;3675;43.276;27.962;2022-07-10T01:36:43;4.15;;;1.98;;
7267;SDS011;3675;43.276;27.962;2022-07-10T01:39:08;1.88;;;1.77;;
7267;SDS011;3675;43.276;27.962;2022-07-10T01:41:33;1.80;;;1.80;;
7267;SDS011;3675;43.276;27.962;2022-07-10T01:43:59;2.30;;;2.05;;
7267;SDS011;3675;43.276;27.962;2022-07-10T01:46:24;1.92;;;1.83;;
7267;SDS011;3675;43.276;27.962;2022-07-10T01:48:50;1.75;;;1.65;;
7267;SDS011;3675;43.276;27.962;2022-07-10T01:51:16;2.17;;;2.08;;
7267;SDS011;3675;43.276;27.962;2022-07-10T01:53:41;2.10;;;2.00;;
7267;SDS011;3675;43.276;27.962;2022-07-10T01:56:09;2.17;;;1.98;;
7267;SDS011;3675;43.276;27.962;2022-07-10T01:58:34;1.73;;;1.73;;
7267;SDS011;3675;43.276;27.962;2022-07-10T02:01:00;2.33;;;2.13;;
7267;SDS011;3675;43.276;27.962;2022-07-10T02:03:25;2.10;;;2.00;;
7267;SDS011;3675;43.276;27.962;2022-07-10T02:06:09;2.50;;;2.30;;
7267;SDS011;3675;43.276;27.962;2022-07-10T02:08:35;2.65;;;2.50;;
7267;SDS011;3675;43.276;27.962;2022-07-10T02:11:00;2.20;;;2.10;;
7267;SDS011;3675;43.276;27.962;2022-07-10T02:13:25;1.95;;;1.85;;
7267;SDS011;3675;43.276;27.962;2022-07-10T02:15:53;3.00;;;2.47;;
7267;SDS011;3675;43.276;27.962;2022-07-10T02:18:19;2.13;;;2.03;;
7267;SDS011;3675;43.276;27.962;2022-07-10T02:20:54;3.78;;;2.03;;
7267;SDS011;3675;43.276;27.962;2022-07-10T02:23:20;2.00;;;1.88;;
7267;SDS011;3675;43.276;27.962;2022-07-10T02:25:45;2.92;;;1.63;;
7267;SDS011;3675;43.276;27.962;2022-07-10T02:28:10;1.98;;;1.88;;
7267;SDS011;3675;43.276;27.962;2022-07-10T02:30:36;2.40;;;2.30;;
7267;SDS011;3675;43.276;27.962;2022-07-10T02:33:01;2.30;;;2.20;;
7267;SDS011;3675;43.276;27.962;2022-07-10T02:35:27;2.10;;;1.90;;
7267;SDS011;3675;43.276;27.962;2022-07-10T02:37:53;2.00;;;1.90;;
7267;SDS011;3675;43.276;27.962;2022-07-10T02:40:19;4.20;;;2.00;;
7267;SDS011;3675;43.276;27.962;2022-07-10T02:42:45;2.08;;;1.98;;
7267;SDS011;3675;43.276;27.962;2022-07-10T02:45:12;2.25;;;2.15;;
7267;SDS011;3675;43.276;27.962;2022-07-10T02:47:38;2.03;;;1.92;;
7267;SDS011;3675;43.276;27.962;2022-07-10T02:50:06;1.90;;;1.80;;
7267;SDS011;3675;43.276;27.962;2022-07-10T02:52:32;1.88;;;1.77;;
7267;SDS011;3675;43.276;27.962;2022-07-10T02:54:58;1.98;;;1.83;;
7267;SDS011;3675;43.276;27.962;2022-07-10T02:57:23;1.83;;;1.73;;
7267;SDS011;3675;43.276;27.962;2022-07-10T02:59:49;2.42;;;1.67;;
7267;SDS011;3675;43.276;27.962;2022-07-10T03:02:14;2.05;;;1.95;;
7267;SDS011;3675;43.276;27.962;2022-07-10T03:04:41;2.42;;;2.28;;
7267;SDS011;3675;43.276;27.962;2022-07-10T03:07:07;2.70;;;2.50;;
7267;SDS011;3675;43.276;27.962;2022-07-10T03:09:34;2.55;;;2.33;;
7267;SDS011;3675;43.276;27.962;2022-07-10T03:12:00;2.08;;;1.98;;
7267;SDS011;3675;43.276;27.962;2022-07-10T03:14:26;2.08;;;1.88;;
7267;SDS011;3675;43.276;27.962;2022-07-10T03:16:55;1.88;;;1.77;;
7267;SDS011;3675;43.276;27.962;2022-07-10T03:19:21;2.03;;;1.92;;
7267;SDS011;3675;43.276;27.962;2022-07-10T03:21:47;2.15;;;2.05;;
7267;SDS011;3675;43.276;27.962;2022-07-10T03:24:14;2.15;;;2.05;;
7267;SDS011;3675;43.276;27.962;2022-07-10T03:26:40;2.20;;;2.00;;
7267;SDS011;3675;43.276;27.962;2022-07-10T03:29:06;2.60;;;2.05;;
7267;SDS011;3675;43.276;27.962;2022-07-10T03:31:35;2.00;;;1.80;;
7267;SDS011;3675;43.276;27.962;2022-07-10T03:34:01;2.45;;;2.33;;
7267;SDS011;3675;43.276;27.962;2022-07-10T03:36:26;2.13;;;2.03;;
7267;SDS011;3675;43.276;27.962;2022-07-10T03:38:52;2.05;;;1.95;;
7267;SDS011;3675;43.276;27.962;2022-07-10T03:41:17;3.05;;;2.75;;
7267;SDS011;3675;43.276;27.962;2022-07-10T03:43:43;2.42;;;2.22;;
7267;SDS011;3675;43.276;27.962;2022-07-10T03:46:08;5.35;;;2.10;;
7267;SDS011;3675;43.276;27.962;2022-07-10T03:48:34;2.00;;;1.90;;
7267;SDS011;3675;43.276;27.962;2022-07-10T03:51:00;2.35;;;2.10;;
7267;SDS011;3675;43.276;27.962;2022-07-10T03:53:25;3.40;;;2.05;;
7267;SDS011;3675;43.276;27.962;2022-07-10T03:55:52;2.78;;;2.25;;
7267;SDS011;3675;43.276;27.962;2022-07-10T03:58:19;2.03;;;1.92;;
7267;SDS011;3675;43.276;27.962;2022-07-10T04:00:45;2.28;;;2.17;;
7267;SDS011;3675;43.276;27.962;2022-07-10T04:03:11;2.65;;;2.10;;
7267;SDS011;3675;43.276;27.962;2022-07-10T04:05:41;2.58;;;2.38;;
7267;SDS011;3675;43.276;27.962;2022-07-10T04:08:07;6.35;;;2.00;;
7267;SDS011;3675;43.276;27.962;2022-07-10T04:10:34;2.40;;;2.30;;
7267;SDS011;3675;43.276;27.962;2022-07-10T04:12:59;2.85;;;1.70;;
7267;SDS011;3675;43.276;27.962;2022-07-10T04:15:25;2.70;;;1.63;;
7267;SDS011;3675;43.276;27.962;2022-07-10T04:17:54;2.22;;;2.13;;
7267;SDS011;3675;43.276;27.962;2022-07-10T04:20:20;2.42;;;2.22;;
7267;SDS011;3675;43.276;27.962;2022-07-10T04:22:46;2.15;;;1.63;;
7267;SDS011;3675;43.276;27.962;2022-07-10T04:25:12;2.40;;;2.30;;
7267;SDS011;3675;43.276;27.962;2022-07-10T04:27:38;2.05;;;1.95;;
7267;SDS011;3675;43.276;27.962;2022-07-10T04:30:07;2.20;;;2.10;;
7267;SDS011;3675;43.276;27.962;2022-07-10T04:32:33;1.88;;;1.70;;
7267;SDS011;3675;43.276;27.962;2022-07-10T04:34:59;2.65;;;2.42;;
7267;SDS011;3675;43.276;27.962;2022-07-10T04:37:26;5.65;;;2.03;;
7267;SDS011;3675;43.276;27.962;2022-07-10T04:39:56;1.90;;;1.80;;
7267;SDS011;3675;43.276;27.962;2022-07-10T04:42:22;2.88;;;2.05;;
7267;SDS011;3675;43.276;27.962;2022-07-10T04:44:51;1.95;;;1.77;;
7267;SDS011;3675;43.276;27.962;2022-07-10T04:47:17;2.13;;;1.73;;
7267;SDS011;3675;43.276;27.962;2022-07-10T04:49:42;2.80;;;1.80;;
7267;SDS011;3675;43.276;27.962;2022-07-10T04:52:07;1.67;;;1.58;;
7267;SDS011;3675;43.276;27.962;2022-07-10T04:54:33;1.75;;;1.73;;
7267;SDS011;3675;43.276;27.962;2022-07-10T04:57:02;2.13;;;1.90;;
7267;SDS011;3675;43.276;27.962;2022-07-10T04:59:27;2.90;;;2.17;;
7267;SDS011;3675;43.276;27.962;2022-07-10T05:01:53;1.38;;;1.38;;
7267;SDS011;3675;43.276;27.962;2022-07-10T05:04:20;2.88;;;1.75;;
7267;SDS011;3675;43.276;27.962;2022-07-10T05:06:46;1.80;;;1.70;;
7267;SDS011;3675;43.276;27.962;2022-07-10T05:09:33;1.80;;;1.80;;
7267;SDS011;3675;43.276;27.962;2022-07-10T05:11:57;1.50;;;1.40;;
7267;SDS011;3675;43.276;27.962;2022-07-10T05:14:22;2.15;;;2.00;;
7267;SDS011;3675;43.276;27.962;2022-07-10T05:16:50;1.75;;;1.73;;
7267;SDS011;3675;43.276;27.962;2022-07-10T05:19:21;2.10;;;1.90;;
7267;SDS011;3675;43.276;27.962;2022-07-10T05:21:46;2.25;;;2.13;;
7267;SDS011;3675;43.276;27.962;2022-07-10T05:24:12;2.25;;;1.80;;
7267;SDS011;3675;43.276;27.962;2022-07-10T05:26:37;1.88;;;1.70;;
7267;SDS011;3675;43.276;27.962;2022-07-10T05:29:03;3.05;;;1.92;;
7267;SDS011;3675;43.276;27.962;2022-07-10T05:31:28;1.70;;;1.70;;
7267;SDS011;3675;43.276;27.962;2022-07-10T05:33:56;2.03;;;1.92;;
7267;SDS011;3675;43.276;27.962;2022-07-10T05:36:22;2.20;;;2.00;;
7267;SDS011;3675;43.276;27.962;2022-07-10T05:38:47;2.45;;;1.83;;
7267;SDS011;3675;43.276;27.962;2022-07-10T05:41:13;1.95;;;1.90;;
7267;SDS011;3675;43.276;27.962;2022-07-10T05:43:38;2.30;;;2.10;;
7267;SDS011;3675;43.276;27.962;2022-07-10T05:46:04;2.00;;;1.90;;
7267;SDS011;3675;43.276;27.962;2022-07-10T05:48:32;2.67;;;1.90;;
7267;SDS011;3675;43.276;27.962;2022-07-10T05:51:01;2.10;;;2.00;;
7267;SDS011;3675;43.276;27.962;2022-07-10T05:53:26;2.20;;;2.05;;
7267;SDS011;3675;43.276;27.962;2022-07-10T05:55:52;2.25;;;2.15;;
7267;SDS011;3675;43.276;27.962;2022-07-10T05:58:17;1.80;;;1.70;;
7267;SDS011;3675;43.276;27.962;2022-07-10T06:00:43;1.73;;;1.63;;
7267;SDS011;3675;43.276;27.962;2022-07-10T06:03:09;1.73;;;1.63;;
7267;SDS011;3675;43.276;27.962;2022-07-10T06:05:35;2.25;;;2.15;;
7267;SDS011;3675;43.276;27.962;2022-07-10T06:08:01;1.77;;;1.65;;
7267;SDS011;3675;43.276;27.962;2022-07-10T06:10:26;2.28;;;2.00;;
7267;SDS011;3675;43.276;27.962;2022-07-10T06:12:53;2.08;;;2.00;;
7267;SDS011;3675;43.276;27.962;2022-07-10T06:15:18;2.25;;;1.80;;
7267;SDS011;3675;43.276;27.962;2022-07-10T06:17:44;1.70;;;1.70;;
7267;SDS011;3675;43.276;27.962;2022-07-10T06:20:10;2.97;;;1.90;;
7267;SDS011;3675;43.276;27.962;2022-07-10T06:22:35;1.95;;;1.85;;
7267;SDS011;3675;43.276;27.962;2022-07-10T06:25:02;2.13;;;1.92;;
7267;SDS011;3675;43.276;27.962;2022-07-10T06:27:28;1.77;;;1.67;;
7267;SDS011;3675;43.276;27.962;2022-07-10T06:29:54;2.15;;;2.05;;
7267;SDS011;3675;43.276;27.962;2022-07-10T06:32:20;2.33;;;2.22;;
7267;SDS011;3675;43.276;27.962;2022-07-10T06:34:45;2.13;;;1.95;;
7267;SDS011;3675;43.276;27.962;2022-07-10T06:37:11;1.75;;;1.65;;
7267;SDS011;3675;43.276;27.962;2022-07-10T06:39:36;2.55;;;2.45;;
7267;SDS011;3675;43.276;27.962;2022-07-10T06:42:05;1.95;;;1.85;;
7267;SDS011;3675;43.276;27.962;2022-07-10T06:44:31;1.60;;;1.60;;
7267;SDS011;3675;43.276;27.962;2022-07-10T06:46:56;1.95;;;1.85;;
7267;SDS011;3675;43.276;27.962;2022-07-10T06:49:41;2.30;;;2.05;;
7267;SDS011;3675;43.276;27.962;2022-07-10T06:52:06;1.80;;;1.70;;
7267;SDS011;3675;43.276;27.962;2022-07-10T06:54:32;2.72;;;1.90;;
7267;SDS011;3675;43.276;27.962;2022-07-10T06:56:58;1.80;;;1.70;;
7267;SDS011;3675;43.276;27.962;2022-07-10T06:59:23;1.92;;;1.83;;
7267;SDS011;3675;43.276;27.962;2022-07-10T07:01:49;1.75;;;1.75;;
7267;SDS011;3675;43.276;27.962;2022-07-10T07:04:14;2.00;;;1.80;;
7267;SDS011;3675;43.276;27.962;2022-07-10T07:06:40;1.60;;;1.60;;
7267;SDS011;3675;43.276;27.962;2022-07-10T07:09:05;1.73;;;1.65;;
7267;SDS011;3675;43.276;27.962;2022-07-10T07:11:31;1.92;;;1.83;;
7267;SDS011;3675;43.276;27.962;2022-07-10T07:13:56;1.83;;;1.70;;
7267;SDS011;3675;43.276;27.962;2022-07-10T07:16:21;1.88;;;1.77;;
7267;SDS011;3675;43.276;27.962;2022-07-10T07:19:02;2.40;;;2.20;;
7267;SDS011;3675;43.276;27.962;2022-07-10T07:21:29;1.58;;;1.50;;
7267;SDS011;3675;43.276;27.962;2022-07-10T07:24:13;2.72;;;1.50;;
7267;SDS011;3675;43.276;27.962;2022-07-10T07:26:39;1.20;;;1.20;;
7267;SDS011;3675;43.276;27.962;2022-07-10T07:29:04;2.78;;;1.60;;
7267;SDS011;3675;43.276;27.962;2022-07-10T07:31:30;1.65;;;1.55;;
7267;SDS011;3675;43.276;27.962;2022-07-10T07:33:58;1.92;;;1.83;;
7267;SDS011;3675;43.276;27.962;2022-07-10T07:36:23;2.05;;;1.95;;
7267;SDS011;3675;43.276;27.962;2022-07-10T07:38:49;1.85;;;1.75;;
7267;SDS011;3675;43.276;27.962;2022-07-10T07:41:14;1.52;;;1.45;;
7267;SDS011;3675;43.276;27.962;2022-07-10T07:43:40;1.70;;;1.60;;
7267;SDS011;3675;43.276;27.962;2022-07-10T07:46:06;1.27;;;1.27;;
7267;SDS011;3675;43.276;27.962;2022-07-10T07:48:31;2.10;;;2.00;;
7267;SDS011;3675;43.276;27.962;2022-07-10T07:50:56;4.30;;;1.55;;
7267;SDS011;3675;43.276;27.962;2022-07-10T07:53:22;3.00;;;1.80;;
7267;SDS011;3675;43.276;27.962;2022-07-10T07:55:49;1.95;;;1.85;;
7267;SDS011;3675;43.276;27.962;2022-07-10T07:58:17;15.75;;;2.55;;
7267;SDS011;3675;43.276;27.962;2022-07-10T08:00:43;1.10;;;1.10;;
7267;SDS011;3675;43.276;27.962;2022-07-10T08:03:11;1.88;;;1.67;;
7267;SDS011;3675;43.276;27.962;2022-07-10T08:05:37;1.85;;;1.75;;
7267;SDS011;3675;43.276;27.962;2022-07-10T08:08:02;2.60;;;1.42;;
7267;SDS011;3675;43.276;27.962;2022-07-10T08:10:33;4.88;;;1.52;;
7267;SDS011;3675;43.276;27.962;2022-07-10T08:12:59;3.30;;;2.00;;
7267;SDS011;3675;43.276;27.962;2022-07-10T08:15:25;1.38;;;1.38;;
7267;SDS011;3675;43.276;27.962;2022-07-10T08:17:51;1.60;;;1.60;;
7267;SDS011;3675;43.276;27.962;2022-07-10T08:20:17;1.50;;;1.50;;
7267;SDS011;3675;43.276;27.962;2022-07-10T08:22:43;1.88;;;1.77;;
7267;SDS011;3675;43.276;27.962;2022-07-10T08:25:08;1.50;;;1.40;;
7267;SDS011;3675;43.276;27.962;2022-07-10T08:27:34;6.72;;;1.77;;
7267;SDS011;3675;43.276;27.962;2022-07-10T08:29:59;1.85;;;1.52;;
7267;SDS011;3675;43.276;27.962;2022-07-10T08:32:25;1.65;;;1.55;;
7267;SDS011;3675;43.276;27.962;2022-07-10T08:34:52;1.60;;;1.58;;
7267;SDS011;3675;43.276;27.962;2022-07-10T08:37:17;1.83;;;1.50;;
7267;SDS011;3675;43.276;27.962;2022-07-10T08:39:50;2.08;;;1.88;;
7267;SDS011;3675;43.276;27.962;2022-07-10T08:42:16;1.50;;;1.40;;
7267;SDS011;3675;43.276;27.962;2022-07-10T08:44:43;4.00;;;1.85;;
7267;SDS011;3675;43.276;27.962;2022-07-10T08:47:09;1.55;;;1.45;;
7267;SDS011;3675;43.276;27.962;2022-07-10T08:49:38;1.70;;;1.70;;
7267;SDS011;3675;43.276;27.962;2022-07-10T08:52:17;1.63;;;1.52;;
7267;SDS011;3675;43.276;27.962;2022-07-10T08:54:48;1.08;;;1.08;;
7267;SDS011;3675;43.276;27.962;2022-07-10T08:57:13;1.67;;;1.58;;
7267;SDS011;3675;43.276;27.962;2022-07-10T08:59:40;1.58;;;1.58;;
7267;SDS011;3675;43.276;27.962;2022-07-10T09:02:06;1.48;;;1.38;;
7267;SDS011;3675;43.276;27.962;2022-07-10T09:04:34;1.63;;;1.60;;
7267;SDS011;3675;43.276;27.962;2022-07-10T09:07:00;1.63;;;1.55;;
7267;SDS011;3675;43.276;27.962;2022-07-10T09:09:25;1.77;;;1.67;;
7267;SDS011;3675;43.276;27.962;2022-07-10T09:11:57;1.58;;;1.42;;
7267;SDS011;3675;43.276;27.962;2022-07-10T09:14:29;1.42;;;1.40;;
7267;SDS011;3675;43.276;27.962;2022-07-10T09:16:54;1.25;;;1.25;;
7267;SDS011;3675;43.276;27.962;2022-07-10T09:19:21;1.73;;;1.35;;
7267;SDS011;3675;43.276;27.962;2022-07-10T09:24:16;1.27;;;1.25;;
7267;SDS011;3675;43.276;27.962;2022-07-10T09:29:19;1.73;;;1.63;;
7267;SDS011;3675;43.276;27.962;2022-07-10T09:31:52;2.10;;;1.27;;
7267;SDS011;3675;43.276;27.962;2022-07-10T09:34:38;0.95;;;0.95;;
7267;SDS011;3675;43.276;27.962;2022-07-10T09:37:26;1.23;;;1.23;;
7267;SDS011;3675;43.276;27.962;2022-07-10T09:42:40;2.08;;;1.30;;
7267;SDS011;3675;43.276;27.962;2022-07-10T09:52:57;1.00;;;1.00;;
7267;SDS011;3675;43.276;27.962;2022-07-10T09:55:23;1.30;;;1.17;;
7267;SDS011;3675;43.276;27.962;2022-07-10T09:58:01;1.25;;;1.00;;
7267;SDS011;3675;43.276;27.962;2022-07-10T10:00:29;1.20;;;1.20;;
7267;SDS011;3675;43.276;27.962;2022-07-10T10:03:00;1.88;;;1.08;;
7267;SDS011;3675;43.276;27.962;2022-07-10T10:05:28;1.52;;;1.50;;
7267;SDS011;3675;43.276;27.962;2022-07-10T10:07:55;2.35;;;1.40;;
7267;SDS011;3675;43.276;27.962;2022-07-10T10:10:21;1.00;;;1.00;;
7267;SDS011;3675;43.276;27.962;2022-07-10T10:12:52;1.25;;;1.25;;
7267;SDS011;3675;43.276;27.962;2022-07-10T10:15:23;1.85;;;1.63;;
7267;SDS011;3675;43.276;27.962;2022-07-10T10:17:49;1.00;;;1.00;;
7267;SDS011;3675;43.276;27.962;2022-07-10T10:20:15;1.25;;;1.15;;
7267;SDS011;3675;43.276;27.962;2022-07-10T10:23:00;1.50;;;1.50;;
7267;SDS011;3675;43.276;27.962;2022-07-10T10:25:26;1.13;;;1.13;;
7267;SDS011;3675;43.276;27.962;2022-07-10T10:27:53;1.40;;;1.40;;
7267;SDS011;3675;43.276;27.962;2022-07-10T10:30:19;1.00;;;1.00;;
7267;SDS011;3675;43.276;27.962;2022-07-10T10:32:48;1.60;;;1.15;;
7267;SDS011;3675;43.276;27.962;2022-07-10T10:35:41;0.98;;;0.98;;
7267;SDS011;3675;43.276;27.962;2022-07-10T10:38:00;1.38;;;1.27;;
7267;SDS011;3675;43.276;27.962;2022-07-10T10:40:30;1.35;;;1.20;;
7267;SDS011;3675;43.276;27.962;2022-07-10T10:45:42;1.30;;;1.20;;
7267;SDS011;3675;43.276;27.962;2022-07-10T10:48:09;1.23;;;1.15;;
7267;SDS011;3675;43.276;27.962;2022-07-10T10:53:13;1.25;;;0.90;;
7267;SDS011;3675;43.276;27.962;2022-07-10T10:55:39;1.17;;;1.13;;
7267;SDS011;3675;43.276;27.962;2022-07-10T10:58:14;1.13;;;1.13;;
7267;SDS011;3675;43.276;27.962;2022-07-10T11:00:40;1.10;;;1.10;;
7267;SDS011;3675;43.276;27.962;2022-07-10T11:03:13;1.20;;;1.10;;
7267;SDS011;3675;43.276;27.962;2022-07-10T11:05:39;0.98;;;0.98;;
7267;SDS011;3675;43.276;27.962;2022-07-10T11:08:06;1.27;;;1.17;;
7267;SDS011;3675;43.276;27.962;2022-07-10T11:10:45;1.00;;;1.00;;
7267;SDS011;3675;43.276;27.962;2022-07-10T11:13:17;1.25;;;1.25;;
7267;SDS011;3675;43.276;27.962;2022-07-10T11:15:44;1.00;;;1.00;;
7267;SDS011;3675;43.276;27.962;2022-07-10T11:18:13;1.08;;;1.08;;
7267;SDS011;3675;43.276;27.962;2022-07-10T11:20:39;1.00;;;1.00;;
7267;SDS011;3675;43.276;27.962;2022-07-10T11:25:42;3.10;;;1.10;;
7267;SDS011;3675;43.276;27.962;2022-07-10T11:28:15;1.05;;;1.05;;
7267;SDS011;3675;43.276;27.962;2022-07-10T11:30:53;1.52;;;1.00;;
7267;SDS011;3675;43.276;27.962;2022-07-10T11:33:19;0.98;;;0.98;;
7267;SDS011;3675;43.276;27.962;2022-07-10T11:35:51;0.88;;;0.88;;
7267;SDS011;3675;43.276;27.962;2022-07-10T11:38:26;0.93;;;0.93;;
7267;SDS011;3675;43.276;27.962;2022-07-10T11:40:52;0.98;;;0.98;;
7267;SDS011;3675;43.276;27.962;2022-07-10T11:43:21;0.80;;;0.80;;
7267;SDS011;3675;43.276;27.962;2022-07-10T11:45:49;1.25;;;1.15;;
7267;SDS011;3675;43.276;27.962;2022-07-10T11:48:19;0.90;;;0.90;;
7267;SDS011;3675;43.276;27.962;2022-07-10T11:50:45;1.02;;;1.02;;
7267;SDS011;3675;43.276;27.962;2022-07-10T11:53:11;0.98;;;0.98;;
7267;SDS011;3675;43.276;27.962;2022-07-10T11:55:42;0.88;;;0.88;;
7267;SDS011;3675;43.276;27.962;2022-07-10T11:58:16;0.90;;;0.90;;
7267;SDS011;3675;43.276;27.962;2022-07-10T12:00:59;1.00;;;1.00;;
7267;SDS011;3675;43.276;27.962;2022-07-10T12:03:25;2.85;;;0.80;;
7267;SDS011;3675;43.276;27.962;2022-07-10T12:06:03;1.05;;;1.05;;
7267;SDS011;3675;43.276;27.962;2022-07-10T12:08:44;1.70;;;1.33;;
7267;SDS011;3675;43.276;27.962;2022-07-10T12:11:11;0.90;;;0.90;;
7267;SDS011;3675;43.276;27.962;2022-07-10T12:13:36;0.73;;;0.73;;
7267;SDS011;3675;43.276;27.962;2022-07-10T12:16:02;0.95;;;0.95;;
7267;SDS011;3675;43.276;27.962;2022-07-10T12:18:27;1.00;;;1.00;;
7267;SDS011;3675;43.276;27.962;2022-07-10T12:20:53;1.75;;;1.10;;
7267;SDS011;3675;43.276;27.962;2022-07-10T12:23:24;0.90;;;0.90;;
7267;SDS011;3675;43.276;27.962;2022-07-10T12:25:49;1.33;;;1.33;;
7267;SDS011;3675;43.276;27.962;2022-07-10T12:28:15;1.20;;;1.20;;
7267;SDS011;3675;43.276;27.962;2022-07-10T12:30:44;0.98;;;0.98;;
7267;SDS011;3675;43.276;27.962;2022-07-10T12:33:15;1.30;;;1.13;;
7267;SDS011;3675;43.276;27.962;2022-07-10T12:35:57;2.13;;;1.08;;
7267;SDS011;3675;43.276;27.962;2022-07-10T12:38:32;3.58;;;1.27;;
7267;SDS011;3675;43.276;27.962;2022-07-10T12:41:13;1.10;;;1.10;;
7267;SDS011;3675;43.276;27.962;2022-07-10T12:43:40;0.82;;;0.82;;
7267;SDS011;3675;43.276;27.962;2022-07-10T12:49:05;0.93;;;0.93;;
7267;SDS011;3675;43.276;27.962;2022-07-10T12:51:33;0.90;;;0.90;;
7267;SDS011;3675;43.276;27.962;2022-07-10T12:53:58;0.90;;;0.90;;
7267;SDS011;3675;43.276;27.962;2022-07-10T12:58:52;0.88;;;0.88;;
7267;SDS011;3675;43.276;27.962;2022-07-10T13:01:18;1.00;;;1.00;;
7267;SDS011;3675;43.276;27.962;2022-07-10T13:03:43;1.10;;;1.10;;
7267;SDS011;3675;43.276;27.962;2022-07-10T13:06:30;0.90;;;0.90;;
7267;SDS011;3675;43.276;27.962;2022-07-10T13:08:54;0.85;;;0.85;;
7267;SDS011;3675;43.276;27.962;2022-07-10T13:11:20;0.68;;;0.68;;
7267;SDS011;3675;43.276;27.962;2022-07-10T13:13:46;1.38;;;1.25;;
7267;SDS011;3675;43.276;27.962;2022-07-10T13:16:12;0.93;;;0.93;;
7267;SDS011;3675;43.276;27.962;2022-07-10T13:18:43;0.90;;;0.90;;
7267;SDS011;3675;43.276;27.962;2022-07-10T13:21:09;0.75;;;0.75;;
7267;SDS011;3675;43.276;27.962;2022-07-10T13:23:36;0.80;;;0.80;;
7267;SDS011;3675;43.276;27.962;2022-07-10T13:26:02;1.02;;;1.02;;
7267;SDS011;3675;43.276;27.962;2022-07-10T13:28:28;0.80;;;0.80;;
7267;SDS011;3675;43.276;27.962;2022-07-10T13:30:54;1.20;;;1.10;;
7267;SDS011;3675;43.276;27.962;2022-07-10T13:33:20;1.15;;;1.10;;
7267;SDS011;3675;43.276;27.962;2022-07-10T13:35:45;0.80;;;0.80;;
7267;SDS011;3675;43.276;27.962;2022-07-10T13:38:14;0.90;;;0.90;;
7267;SDS011;3675;43.276;27.962;2022-07-10T13:40:43;1.33;;;1.23;;
7267;SDS011;3675;43.276;27.962;2022-07-10T13:43:10;1.00;;;1.00;;
7267;SDS011;3675;43.276;27.962;2022-07-10T13:45:39;4.05;;;1.17;;
7267;SDS011;3675;43.276;27.962;2022-07-10T13:48:13;0.95;;;0.90;;
7267;SDS011;3675;43.276;27.962;2022-07-10T13:50:39;6.25;;;1.55;;
7267;SDS011;3675;43.276;27.962;2022-07-10T13:53:05;0.93;;;0.93;;
7267;SDS011;3675;43.276;27.962;2022-07-10T13:55:30;0.93;;;0.93;;
7267;SDS011;3675;43.276;27.962;2022-07-10T13:57:58;0.80;;;0.80;;
7267;SDS011;3675;43.276;27.962;2022-07-10T14:00:26;0.95;;;0.88;;
7267;SDS011;3675;43.276;27.962;2022-07-10T14:02:53;1.08;;;1.08;;
7267;SDS011;3675;43.276;27.962;2022-07-10T14:05:21;1.02;;;1.02;;
7267;SDS011;3675;43.276;27.962;2022-07-10T14:07:47;0.82;;;0.82;;
7267;SDS011;3675;43.276;27.962;2022-07-10T14:10:12;1.00;;;1.00;;
7267;SDS011;3675;43.276;27.962;2022-07-10T14:12:38;0.90;;;0.90;;
7267;SDS011;3675;43.276;27.962;2022-07-10T14:15:03;1.27;;;0.85;;
7267;SDS011;3675;43.276;27.962;2022-07-10T14:17:29;0.60;;;0.60;;
7267;SDS011;3675;43.276;27.962;2022-07-10T14:19:57;0.82;;;0.82;;
7267;SDS011;3675;43.276;27.962;2022-07-10T14:22:26;0.98;;;0.90;;
7267;SDS011;3675;43.276;27.962;2022-07-10T14:24:51;0.90;;;0.90;;
7267;SDS011;3675;43.276;27.962;2022-07-10T14:27:18;0.90;;;0.90;;
7267;SDS011;3675;43.276;27.962;2022-07-10T14:29:44;1.17;;;1.08;;
7267;SDS011;3675;43.276;27.962;2022-07-10T14:32:11;0.77;;;0.77;;
7267;SDS011;3675;43.276;27.962;2022-07-10T14:34:36;1.05;;;1.00;;
7267;SDS011;3675;43.276;27.962;2022-07-10T14:37:02;1.33;;;1.15;;
7267;SDS011;3675;43.276;27.962;2022-07-10T14:39:27;0.80;;;0.80;;
7267;SDS011;3675;43.276;27.962;2022-07-10T14:41:53;0.90;;;0.90;;
7267;SDS011;3675;43.276;27.962;2022-07-10T14:44:19;0.90;;;0.90;;
7267;SDS011;3675;43.276;27.962;2022-07-10T14:46:47;0.93;;;0.93;;
7267;SDS011;3675;43.276;27.962;2022-07-10T14:49:12;0.77;;;0.77;;
7267;SDS011;3675;43.276;27.962;2022-07-10T14:51:38;0.95;;;0.95;;
7267;SDS011;3675;43.276;27.962;2022-07-10T14:54:05;1.42;;;1.35;;
7267;SDS011;3675;43.276;27.962;2022-07-10T14:56:30;1.00;;;1.00;;
7267;SDS011;3675;43.276;27.962;2022-07-10T14:58:57;1.35;;;1.10;;
7267;SDS011;3675;43.276;27.962;2022-07-10T15:01:22;1.42;;;0.68;;
7267;SDS011;3675;43.276;27.962;2022-07-10T15:03:47;0.85;;;0.85;;
7267;SDS011;3675;43.276;27.962;2022-07-10T15:06:13;0.82;;;0.82;;
7267;SDS011;3675;43.276;27.962;2022-07-10T15:08:38;1.25;;;1.25;;
7267;SDS011;3675;43.276;27.962;2022-07-10T15:11:04;3.92;;;3.63;;
7267;SDS011;3675;43.276;27.962;2022-07-10T15:13:31;0.95;;;0.95;;
7267;SDS011;3675;43.276;27.962;2022-07-10T15:15:57;1.00;;;1.00;;
7267;SDS011;3675;43.276;27.962;2022-07-10T15:18:22;0.98;;;0.98;;
7267;SDS011;3675;43.276;27.962;2022-07-10T15:20:50;0.88;;;0.88;;
7267;SDS011;3675;43.276;27.962;2022-07-10T15:23:15;1.25;;;0.90;;
7267;SDS011;3675;43.276;27.962;2022-07-10T15:25:41;0.75;;;0.75;;
7267;SDS011;3675;43.276;27.962;2022-07-10T15:28:09;1.17;;;1.05;;
7267;SDS011;3675;43.276;27.962;2022-07-10T15:30:38;1.05;;;1.05;;